Latest Weather Observations for Kilmore Gap

IDV60801

Issued at 7:42 pm EST Monday 10 August 2020 (issued every 10 minutes, with the page automatically refreshed every 10 minutes)

About weather observations | Map of weather stations | Latest weather observations for VIC | Other Formats
Station Details ID: 088162 Name: KILMORE GAP Lat: -37.38 Lon: 144.97 Height: 527.8 m
Data from the previous 72 hours. | See also: Recent months at Kilmore Gap
Date/Time
EST
Temp
°C
App
Temp
°C
Dew
Point
°C
Rel
Hum
%
Delta-T
°C
Wind Press
QNH
hPa
Press
MSL
hPa
Rain since
9am
mm
Dir  Spd
km/h
Gust
km/h
Spd
kts
Gust
kts
10/07:30pm 8.7 3.6 2.9 67 2.5 NNW 19 22 10 12 1019.7 1020.5 0.0
10/07:00pm 8.8 4.0 2.8 66 2.6 NNW 17 20 9 11 1019.4 1020.1 0.0
10/06:30pm 8.5 3.7 2.7 67 2.5 N 17 19 9 10 1019.1 1019.8 0.0
10/06:00pm 8.7 4.6 4.5 75 1.9 N 15 17 8 9 1019.0 1019.7 0.0
10/05:30pm 9.7 8.0 6.1 78 1.7 NE 4 7 2 4 1019.0 1019.7 0.0
10/05:00pm 10.4 9.2 6.4 76 1.9 ENE 2 6 1 3 1019.2 1019.9 0.0
10/04:30pm 10.3 8.2 6.5 77 1.8 ESE 7 9 4 5 1019.5 1020.2 0.0
10/04:00pm 11.1 10.4 6.8 75 2.1 CALM 0 2 0 1 1019.7 1020.5 0.0
10/03:30pm 11.5 9.7 7.2 75 2.1 SSW 6 9 3 5 1020.1 1020.9 0.0
10/03:00pm 11.0 9.1 6.6 74 2.1 SSW 6 9 3 5 1020.1 1020.9 0.0
10/02:30pm 11.0 9.0 7.1 77 1.9 SE 7 9 4 5 1020.1 1020.9 0.0
10/02:00pm 10.4 8.5 6.5 77 1.9 SSE 6 11 3 6 1020.2 1021.0 0.0
10/01:30pm 10.0 7.8 7.9 87 1.0 S 9 17 5 9 1020.6 1021.3 0.0
10/01:00pm 9.6 7.8 9.6 100 0.0 S 9 13 5 7 1020.7 1021.4 0.0
10/12:30pm 8.8 6.4 8.8 100 0.0 SSE 11 17 6 9 1021.2 1021.9 0.0
10/12:00pm 8.5 6.1 8.5 100 0.0 S 11 17 6 9 1021.6 1022.4 0.0
10/11:30am 7.8 5.6 7.8 100 0.0 SSW 9 13 5 7 1022.1 1022.9 0.0
10/11:00am 6.6 4.1 6.6 100 0.0 S 9 15 5 8 1022.1 1022.9 0.0
10/10:55am 6.9 4.5 6.9 100 0.0 S 9 15 5 8 1022.1 1022.9 0.0
10/10:41am 6.2 3.2 6.2 100 0.0 S 11 15 6 8 1022.0 1022.8 0.0
10/10:37am 6.5 3.6 6.5 100 0.0 S 11 17 6 9 1022.0 1022.8 0.0
10/10:30am 6.2 2.9 6.2 100 0.0 S 13 17 7 9 1022.0 1022.8 0.0
10/10:24am 6.5 3.6 6.5 100 0.0 S 11 15 6 8 1022.0 1022.8 0.0
10/10:00am 5.8 2.4 5.8 100 0.0 S 13 19 7 10 1022.1 1022.9 0.0
10/09:30am 5.3 1.0 5.3 100 0.0 S 17 24 9 13 1022.1 1022.9 0.0
10/09:00am 5.1 1.5 5.1 100 0.0 S 13 19 7 10 1022.1 1022.9 0.2
10/08:30am 4.7 -0.3 4.7 100 0.0 S 20 28 11 15 1021.8 1022.6 0.2
10/08:00am 4.7 0.7 4.7 100 0.0 S 15 22 8 12 1021.6 1022.4 0.2
10/07:30am 4.6 0.9 4.6 100 0.0 SSW 13 19 7 10 1021.5 1022.3 0.2
10/07:00am 4.5 0.1 4.5 100 0.0 S 17 20 9 11 1021.1 1021.8 0.2
10/06:30am 4.6 0.5 4.6 100 0.0 SSW 15 20 8 11 1020.8 1021.5 0.2
10/06:00am 4.6 -0.2 4.6 100 0.0 S 19 24 10 13 1020.7 1021.4 0.2
10/05:30am 4.5 -0.3 4.5 100 0.0 S 19 24 10 13 1020.6 1021.3 0.2
10/05:00am 4.6 -0.2 4.6 100 0.0 S 19 24 10 13 1020.6 1021.3 0.2
10/04:30am 4.6 -0.4 4.6 100 0.0 S 20 24 11 13 1020.5 1021.2 0.2
10/04:00am 4.5 -0.9 4.5 100 0.0 S 22 28 12 15 1020.0 1020.8 0.2
10/03:30am 4.6 -0.4 4.6 100 0.0 S 20 26 11 14 1019.9 1020.7 0.2
10/03:00am 4.5 -0.3 4.5 100 0.0 S 19 24 10 13 1020.1 1020.9 0.2
10/02:30am 4.4 -0.6 4.4 100 0.0 S 20 24 11 13 1020.2 1021.0 0.2
10/02:00am 4.2 -2.0 4.2 100 0.0 SSE 26 32 14 17 1019.8 1020.6 0.2
10/01:30am 4.2 -0.9 4.2 100 0.0 SSE 20 26 11 14 1020.0 1020.8 0.2
10/01:00am 4.5 -0.3 4.5 100 0.0 SSE 19 20 10 11 1020.0 1020.8 0.2
10/12:30am 4.6 -0.4 4.6 100 0.0 SSE 20 24 11 13 1020.0 1020.8 0.0
10/12:00am 4.8 -0.5 4.8 100 0.0 SSE 22 28 12 15 1020.1 1020.9 0.0
 
Date/Time
EST
Temp
°C
App
Temp
°C
Dew
Point
°C
Rel
Hum
%
Delta-T
°C
Wind Press
QNH
hPa
Press
MSL
hPa
Rain since
9am
mm
Dir  Spd
km/h
Gust
km/h
Spd
kts
Gust
kts
09/11:30pm 5.1 -0.6 5.1 100 0.0 S 24 26 13 14 1020.1 1020.9 0.0
09/11:00pm 5.3 0.4 5.3 100 0.0 SSE 20 24 11 13 1020.2 1021.0 0.0
09/10:30pm 5.5 -0.1 5.5 100 0.0 S 24 26 13 14 1020.2 1021.0 0.0
09/10:00pm 5.6 0.4 5.6 100 0.0 SSE 22 24 12 13 1020.6 1021.3 0.0
09/09:30pm 5.8 -0.5 5.8 100 0.0 SSE 28 35 15 19 1020.1 1020.9 0.0
09/09:11pm 6.2 0.0 6.2 100 0.0 SSE 28 39 15 21 1020.1 1020.9 0.0
09/09:00pm 6.3 0.5 6.3 100 0.0 SSE 26 32 14 17 1020.2 1021.0 0.0
09/08:39pm 6.5 1.1 6.5 100 0.0 SSE 24 30 13 16 1020.2 1021.0 0.0
09/08:30pm 6.6 1.3 6.6 100 0.0 SSE 24 30 13 16 1020.2 1021.0 0.0
09/08:00pm 7.1 1.5 7.1 100 0.0 SSE 26 33 14 18 1020.1 1020.9 0.0
09/07:30pm 6.6 0.9 6.5 99 0.0 SSE 26 33 14 18 1019.8 1020.6 0.0
09/07:00pm 7.0 1.6 6.4 96 0.3 SSE 24 32 13 17 1019.7 1020.5 0.0
09/06:30pm 7.1 0.9 6.0 93 0.5 SSE 28 35 15 19 1019.2 1019.9 0.0
09/06:00pm 7.7 1.3 5.2 84 1.1 SSE 28 43 15 23 1018.7 1019.4 0.0
09/05:30pm 8.5 0.8 5.3 80 1.5 SSE 35 50 19 27 1018.1 1018.9 0.0
09/05:00pm 8.9 0.9 5.6 80 1.5 SSE 37 48 20 26 1017.7 1018.4 0.0
09/04:30pm 9.1 1.5 5.8 80 1.6 SSE 35 46 19 25 1017.6 1018.3 0.0
09/04:00pm 9.6 2.1 6.5 81 1.5 SSE 35 48 19 26 1017.4 1018.1 0.0
09/03:30pm 9.6 2.3 7.2 85 1.2 SSE 35 50 19 27 1017.4 1018.1 0.0
09/03:00pm 9.6 0.8 7.4 86 1.1 SSE 43 54 23 29 1017.5 1018.2 0.0
09/02:30pm 10.3 2.4 7.7 84 1.3 SSE 39 52 21 28 1017.6 1018.3 0.0
09/02:00pm 9.4 2.3 8.0 91 0.7 SSE 35 46 19 25 1017.7 1018.4 0.0
09/01:30pm 9.1 2.3 9.1 100 0.0 SSE 35 44 19 24 1018.0 1018.7 0.0
09/01:00pm 9.9 3.7 9.9 100 0.0 SSE 33 48 18 26 1017.9 1018.6 0.0
09/12:30pm 9.0 2.1 9.0 100 0.0 SSE 35 46 19 25 1017.9 1018.6 0.0
09/12:00pm 8.5 2.8 8.5 100 0.0 S 28 37 15 20 1018.5 1019.2 0.0
09/11:30am 7.9 2.5 7.9 100 0.0 S 26 35 14 19 1018.6 1019.3 0.0
09/11:08am 7.0 0.6 7.0 100 0.0 S 30 39 16 21 1018.7 1019.4 0.0
09/11:00am 6.9 1.2 6.9 100 0.0 S 26 35 14 19 1018.7 1019.4 0.0
09/10:53am 6.8 1.5 6.8 100 0.0 S 24 33 13 18 1018.7 1019.4 0.0
09/10:49am 6.8 1.1 6.8 100 0.0 S 26 35 14 19 1018.6 1019.3 0.0
09/10:30am 6.6 0.5 6.6 100 0.0 S 28 39 15 21 1018.5 1019.2 0.0
09/10:00am 6.4 0.3 6.4 100 0.0 S 28 33 15 18 1018.2 1019.0 0.0
09/09:30am 6.1 0.3 6.1 100 0.0 S 26 33 14 18 1018.2 1019.0 0.0
09/09:00am 5.8 -0.1 5.8 100 0.0 S 26 35 14 19 1018.3 1019.1 0.2
09/08:30am 5.5 -0.8 5.5 100 0.0 S 28 33 15 18 1018.0 1018.7 0.2
09/08:00am 5.5 -0.8 5.5 100 0.0 S 28 35 15 19 1017.7 1018.4 0.2
09/07:30am 5.4 -0.2 5.4 100 0.0 S 24 32 13 17 1017.7 1018.4 0.2
09/07:00am 5.5 -0.5 5.5 100 0.0 S 26 32 14 17 1017.2 1017.9 0.2
09/06:30am 5.6 0.4 5.6 100 0.0 S 22 32 12 17 1017.0 1017.7 0.2
09/06:00am 5.8 0.7 5.8 100 0.0 S 22 30 12 16 1016.8 1017.5 0.2
09/05:30am 5.9 1.2 5.9 100 0.0 S 20 32 11 17 1016.7 1017.4 0.2
09/05:00am 6.1 1.6 6.1 100 0.0 S 19 26 10 14 1016.6 1017.3 0.2
09/04:30am 6.4 2.7 6.4 100 0.0 S 15 20 8 11 1016.5 1017.1 0.2
09/04:00am 6.7 1.4 6.7 100 0.0 S 24 32 13 17 1016.2 1016.9 0.2
09/03:30am 7.0 2.1 7.0 100 0.0 S 22 33 12 18 1016.1 1016.8 0.2
09/03:00am 7.3 2.1 7.3 100 0.0 S 24 32 13 17 1016.0 1016.7 0.2
09/02:30am 7.4 1.9 7.4 100 0.0 S 26 33 14 18 1016.2 1016.9 0.2
09/02:00am 7.5 2.0 7.5 100 0.0 S 26 32 14 17 1016.0 1016.7 0.2
09/01:30am 7.6 2.1 7.6 100 0.0 S 26 32 14 17 1016.0 1016.7 0.2
09/01:00am 7.6 2.5 7.6 100 0.0 S 24 30 13 16 1016.2 1016.9 0.2
09/12:30am 7.7 2.2 7.7 100 0.0 S 26 32 14 17 1016.3 1017.0 0.2
09/12:00am 7.7 3.0 7.7 100 0.0 S 22 26 12 14 1016.5 1017.1 0.2
 
Date/Time
EST
Temp
°C
App
Temp
°C
Dew
Point
°C
Rel
Hum
%
Delta-T
°C
Wind Press
QNH
hPa
Press
MSL
hPa
Rain since
9am
mm
Dir  Spd
km/h
Gust
km/h
Spd
kts
Gust
kts
08/11:30pm 7.7 2.6 7.7 100 0.0 S 24 28 13 15 1016.6 1017.3 0.2
08/11:00pm 7.7 3.0 7.7 100 0.0 S 22 28 12 15 1016.6 1017.3 0.2
08/10:30pm 7.4 2.6 7.4 100 0.0 S 22 28 12 15 1016.6 1017.3 0.2
08/10:24pm 7.5 2.4 7.5 100 0.0 S 24 30 13 16 1016.6 1017.3 0.2
08/10:20pm 7.5 2.4 7.5 100 0.0 S 24 30 13 16 1016.6 1017.3 0.2
08/10:17pm 7.4 3.0 7.4 100 0.0 S 20 26 11 14 1016.6 1017.3 0.2
08/10:00pm 7.4 2.6 7.4 100 0.0 S 22 26 12 14 1016.6 1017.3 0.2
08/09:55pm 7.4 2.6 7.4 100 0.0 S 22 26 12 14 1016.6 1017.3 0.2
08/09:30pm 7.7 3.0 7.7 100 0.0 S 22 28 12 15 1016.5 1017.1 0.2
08/09:00pm 7.7 3.4 7.7 100 0.0 S 20 24 11 13 1016.5 1017.1 0.2
08/08:30pm 8.0 3.9 8.0 100 0.0 SSE 19 20 10 11 1016.2 1016.9 0.2
08/08:00pm 8.4 4.8 8.4 100 0.0 SSE 17 22 9 12 1016.1 1016.8 0.2
08/07:30pm 8.7 4.8 8.7 100 0.0 SSE 19 26 10 14 1016.0 1016.7 0.2
08/07:00pm 8.8 4.9 8.8 100 0.0 SSE 19 24 10 13 1015.7 1016.4 0.2
08/06:30pm 9.3 5.9 9.2 99 0.1 S 17 22 9 12 1015.6 1016.3 0.2
08/06:00pm 9.7 6.3 9.1 96 0.3 SSE 17 20 9 11 1015.4 1016.1 0.2
08/05:30pm 10.2 7.6 9.3 94 0.5 SSE 13 19 7 10 1015.0 1015.7 0.2
08/05:00pm 10.2 6.8 9.1 93 0.6 SSE 17 20 9 11 1014.8 1015.4 0.2
08/04:30pm 10.0 6.5 8.8 92 0.6 SSE 17 22 9 12 1014.6 1015.2 0.2
08/04:00pm 10.6 7.2 9.2 91 0.7 SSE 17 22 9 12 1014.7 1015.3 0.2
08/03:30pm 10.9 7.1 9.2 89 0.9 SSE 19 24 10 13 1014.7 1015.3 0.2
08/03:00pm 10.8 6.7 8.7 87 1.1 SSE 20 24 11 13 1014.7 1015.3 0.2
08/02:30pm 11.3 7.5 9.9 91 0.7 SSE 20 26 11 14 1014.6 1015.2 0.2
08/02:00pm 11.1 9.0 11.1 100 0.0 S 13 19 7 10 1014.7 1015.3 0.2
08/01:30pm 10.5 9.0 10.5 100 0.0 S 9 15 5 8 1015.0 1015.7 0.2
08/01:00pm 9.2 7.3 9.2 100 0.0 S 9 15 5 8 1015.2 1015.9 0.2
08/12:56pm 9.1 6.8 9.1 100 0.0 S 11 15 6 8 1015.2 1015.9 0.2
08/12:30pm 8.7 6.3 8.7 100 0.0 S 11 15 6 8 1015.5 1016.2 0.2
08/12:09pm 8.6 5.8 8.6 100 0.0 S 13 19 7 10 1015.5 1016.2 0.2
08/12:00pm 8.2 5.3 8.2 100 0.0 S 13 17 7 9 1015.6 1016.3 0.2
08/11:30am 7.9 5.3 7.9 100 0.0 S 11 15 6 8 1015.8 1016.5 0.2
08/11:00am 7.4 4.3 7.4 100 0.0 S 13 17 7 9 1015.9 1016.6 0.2
08/10:30am 6.7 3.8 6.7 100 0.0 S 11 17 6 9 1015.8 1016.5 0.2
08/10:00am 6.6 3.7 6.6 100 0.0 S 11 15 6 8 1015.7 1016.4 0.2
08/09:32am 6.2 3.2 6.2 100 0.0 S 11 13 6 7 1015.5 1016.2 0.2
08/09:30am 6.1 3.5 6.1 100 0.0 S 9 13 5 7 1015.5 1016.2 0.2
08/09:09am 6.1 2.7 6.1 100 0.0 S 13 15 7 8 1015.4 1016.1 0.0
08/09:00am 6.0 3.0 6.0 100 0.0 S 11 13 6 7 1015.4 1016.1 12.2
08/08:30am 5.8 2.8 5.8 100 0.0 S 11 13 6 7 1015.0 1015.7 12.0
08/08:02am 5.5 2.0 5.5 100 0.0 S 13 15 7 8 1014.8 1015.4 11.6
08/08:00am 5.5 2.0 5.5 100 0.0 S 13 15 7 8 1014.8 1015.4 11.6
08/07:30am 5.4 2.7 5.4 100 0.0 SW 9 13 5 7 1014.7 1015.3 11.0
08/07:28am 5.4 2.7 5.4 100 0.0 SW 9 13 5 7 1014.7 1015.3 11.0
08/07:13am 5.3 1.8 5.3 100 0.0 SW 13 17 7 9 1014.2 1014.9 10.8
08/07:00am 5.4 1.9 5.4 100 0.0 SW 13 15 7 8 1014.0 1014.7 10.8
08/06:54am 5.4 1.9 5.4 100 0.0 SW 13 15 7 8 1014.0 1014.7 10.8
08/06:30am 5.5 2.4 5.5 100 0.0 SSW 11 17 6 9 1013.9 1014.6 10.8
08/06:00am 5.4 1.9 5.4 100 0.0 SSW 13 19 7 10 1013.6 1014.3 10.8
08/05:30am 5.4 1.9 5.4 100 0.0 S 13 19 7 10 1013.4 1014.1 10.8
08/05:02am 5.2 1.6 5.2 100 0.0 SSW 13 15 7 8 1013.3 1013.9 10.8
08/05:00am 5.2 1.6 5.2 100 0.0 SSW 13 15 7 8 1013.2 1013.8 10.8
08/04:45am 5.2 1.6 5.2 100 0.0 SSW 13 15 7 8 1013.3 1013.9 10.8
08/04:30am 5.2 2.0 5.2 100 0.0 SSW 11 13 6 7 1013.3 1013.9 10.8
08/04:00am 5.2 1.3 5.2 100 0.0 S 15 20 8 11 1013.3 1013.9 10.8
08/03:30am 5.2 1.6 5.2 100 0.0 S 13 19 7 10 1013.4 1014.1 10.8
08/03:00am 5.2 0.9 5.2 100 0.0 SSE 17 24 9 13 1013.5 1014.2 10.8
08/02:46am 5.2 0.9 5.2 100 0.0 SSE 17 20 9 11 1013.5 1014.2 10.8
08/02:37am 5.2 0.9 5.2 100 0.0 S 17 24 9 13 1013.6 1014.3 10.8
08/02:30am 5.2 0.9 5.2 100 0.0 S 17 24 9 13 1013.7 1014.4 10.8
08/02:00am 5.2 2.0 5.2 100 0.0 S 11 15 6 8 1013.7 1014.4 10.8
08/01:30am 5.2 1.6 5.2 100 0.0 S 13 19 7 10 1013.8 1014.5 10.8
08/01:00am 5.2 0.9 5.2 100 0.0 S 17 19 9 10 1013.9 1014.6 10.8
08/12:30am 5.2 0.3 5.2 100 0.0 SSE 20 26 11 14 1014.0 1014.7 10.6
08/12:00am 5.3 -0.3 5.3 100 0.0 SSE 24 30 13 16 1014.1 1014.8 10.6
 
Date/Time
EST
Temp
°C
App
Temp
°C
Dew
Point
°C
Rel
Hum
%
Delta-T
°C
Wind Press
QNH
hPa
Press
MSL
hPa
Rain since
9am
mm
Dir  Spd
km/h
Gust
km/h
Spd
kts
Gust
kts
07/11:30pm 5.2 -0.1 5.2 100 0.0 SSE 22 30 12 16 1014.5 1015.1 10.6
07/11:00pm 5.2 0.3 5.2 100 0.0 SSE 20 28 11 15 1014.9 1015.5 10.4
07/10:30pm 5.2 0.3 5.2 100 0.0 SSE 20 24 11 13 1015.2 1015.9 10.0
07/10:00pm 5.2 -0.1 5.2 100 0.0 SSE 22 28 12 15 1015.3 1016.0 9.6
07/09:30pm 5.1 -0.2 5.1 100 0.0 SSE 22 30 12 16 1015.2 1015.9 9.0
07/09:00pm 5.1 -0.2 5.1 100 0.0 SSE 22 28 12 15 1015.3 1016.0 8.8
07/08:42pm 5.1 -0.2 5.1 100 0.0 S 22 28 12 15 1015.4 1016.1 8.4
07/08:30pm 5.1 0.2 5.1 100 0.0 S 20 24 11 13 1015.6 1016.3 7.8
07/08:00pm 5.1 0.8 5.1 100 0.0 S 17 22 9 12 1015.6 1016.3 6.6

Other formats

Comma delimited format used in spreadsheet applications
http://www.bom.gov.au/fwo/IDV60801/IDV60801.94860.axf

JavaScript Object Notation format (JSON) in row-major order
http://www.bom.gov.au/fwo/IDV60801/IDV60801.94860.json

Data quality

Most of these data are generated automatically and are frequently updated. Quality checks on data are not normally performed. It is possible for incorrect values to appear. Refer to information at About Latest Weather Observations and please check the disclaimer before using these data.